Schneifelwetter: Wetterstation Hallschlag, 537 m . NN
Wetterdaten: Donnerstag, 04.02.2010
Datum Zeit Temp. A. Feuchte A. Luftdruck Regen Wind Richtung Richtung Sonnenschein Helligkeit T Regen Taupunkt Windchill
04.02.2010 00:00 0,2 C 99 % 1010 hPa 0,0 l/m 9,8 km/h (2 Bft) W-SW22.5 250 0 min 0 lux 0,00 min 0,1 C -3,1 C
04.02.2010 00:15 0,3 C 99 % 1011 hPa 0,0 l/m 10,9 km/h (2 Bft) W-SW 250 0 min 0 lux 0,00 min 0,2 C -3,8 C
04.02.2010 00:30 0,5 C 99 % 1010 hPa 0,0 l/m 12,8 km/h (3 Bft) W-SW22.5 245 0 min 0 lux 0,00 min 0,4 C -5,0 C
04.02.2010 00:45 0,7 C 99 % 1010 hPa 0,0 l/m 14,7 km/h (3 Bft) W-SW22.5 250 0 min 0 lux 0,00 min 0,6 C -6,0 C
04.02.2010 01:00 0,9 C 99 % 1010 hPa 0,0 l/m 14,7 km/h (3 Bft) W-SW45 245 0 min 0 lux 0,00 min 0,8 C -5,7 C
04.02.2010 01:15 1,0 C 99 % 1010 hPa 0,0 l/m 14,5 km/h (3 Bft) W-SW22.5 245 0 min 0 lux 0,00 min 0,9 C -5,5 C
04.02.2010 01:30 1,1 C 99 % 1010 hPa 0,0 l/m 18,0 km/h (3 Bft) W-SW45 240 0 min 0 lux 0,00 min 1,0 C -7,3 C
04.02.2010 01:45 1,2 C 99 % 1010 hPa 0,0 l/m 17,3 km/h (3 Bft) SW45 225 0 min 0 lux 0,00 min 1,1 C -6,8 C
04.02.2010 02:00 1,3 C 99 % 1010 hPa 0,0 l/m 22,4 km/h (4 Bft) SW22.5 215 0 min 0 lux 0,00 min 1,2 C -9,0 C
04.02.2010 02:15 1,4 C 99 % 1010 hPa 0,0 l/m 22,5 km/h (4 Bft) SW45 230 0 min 0 lux 0,00 min 1,3 C -8,9 C
04.02.2010 02:30 1,4 C 99 % 1010 hPa 0,0 l/m 24,1 km/h (4 Bft) SW22.5 235 0 min 0 lux 0,00 min 1,3 C -9,5 C
04.02.2010 02:45 1,5 C 99 % 1011 hPa 0,0 l/m 19,3 km/h (3 Bft) W-SW22.5 240 0 min 0 lux 0,00 min 1,4 C -7,4 C
04.02.2010 03:00 1,5 C 99 % 1011 hPa 0,0 l/m 16,5 km/h (3 Bft) SW22.5 220 0 min 0 lux 0,00 min 1,4 C -6,0 C
04.02.2010 03:15 1,5 C 99 % 1011 hPa 0,0 l/m 16,5 km/h (3 Bft) S-SW45 205 0 min 0 lux 0,00 min 1,4 C -6,0 C
04.02.2010 03:30 1,5 C 99 % 1011 hPa 0,0 l/m 17,3 km/h (3 Bft) S-SW22.5 205 0 min 0 lux 0,00 min 1,4 C -6,4 C
04.02.2010 03:45 1,6 C 99 % 1010 hPa 0,0 l/m 21,8 km/h (4 Bft) SW45 225 0 min 0 lux 0,00 min 1,5 C -8,3 C
04.02.2010 04:00 1,6 C 99 % 1010 hPa 0,0 l/m 19,4 km/h (3 Bft) SW45 220 0 min 0 lux 0,00 min 1,5 C -7,3 C
04.02.2010 04:15 1,5 C 99 % 1010 hPa 0,0 l/m 20,0 km/h (4 Bft) SW45 230 0 min 0 lux 0,00 min 1,4 C -7,7 C
04.02.2010 04:30 1,5 C 99 % 1010 hPa 0,0 l/m 14,2 km/h (3 Bft) S-SW22.5 210 0 min 0 lux 0,00 min 1,4 C -4,7 C
04.02.2010 04:45 1,5 C 99 % 1010 hPa 0,0 l/m 16,5 km/h (3 Bft) S-SW22.5 205 0 min 0 lux 0,00 min 1,4 C -6,0 C
04.02.2010 05:00 1,3 C 99 % 1010 hPa 0,0 l/m 6,3 km/h (2 Bft) S-SW 205 0 min 0 lux 0,00 min 1,2 C 1,3 C
04.02.2010 05:15 1,2 C 99 % 1010 hPa 0,0 l/m 12,0 km/h (2 Bft) SW22.5 215 0 min 0 lux 0,00 min 1,1 C -3,6 C
04.02.2010 05:30 1,4 C 99 % 1010 hPa 0,0 l/m 17,6 km/h (3 Bft) SW45 215 0 min 0 lux 0,00 min 1,3 C -6,7 C
04.02.2010 05:45 1,5 C 99 % 1010 hPa 0,0 l/m 17,6 km/h (3 Bft) SW22.5 215 0 min 0 lux 0,00 min 1,4 C -6,6 C
04.02.2010 06:00 1,4 C 99 % 1010 hPa 0,0 l/m 16,8 km/h (3 Bft) S-SW22.5 205 0 min 0 lux 0,00 min 1,3 C -6,3 C
04.02.2010 06:15 1,4 C 99 % 1010 hPa 0,0 l/m 17,3 km/h (3 Bft) SW22.5 220 0 min 0 lux 0,00 min 1,3 C -6,5 C
04.02.2010 06:30 1,4 C 99 % 1010 hPa 0,0 l/m 16,6 km/h (3 Bft) S-SW45 210 0 min 0 lux 0,00 min 1,3 C -6,2 C
04.02.2010 06:45 1,3 C 99 % 1010 hPa 0,0 l/m 15,0 km/h (3 Bft) S-SW22.5 195 0 min 0 lux 0,00 min 1,2 C -5,4 C
04.02.2010 07:00 1,3 C 99 % 1010 hPa 0,0 l/m 19,0 km/h (3 Bft) S22.5 185 0 min 0 lux 0,00 min 1,2 C -7,5 C
04.02.2010 07:15 1,4 C 99 % 1010 hPa 0,0 l/m 15,8 km/h (3 Bft) S22.5 190 0 min 0 lux 0,00 min 1,3 C -5,7 C
04.02.2010 07:30 1,2 C 99 % 1010 hPa 0,0 l/m 12,8 km/h (3 Bft) S 185 0 min 0 lux 0,00 min 1,1 C -4,2 C
04.02.2010 07:45 1,2 C 99 % 1010 hPa 0,0 l/m 5,5 km/h (1 Bft) S 190 0 min 0 lux 0,00 min 1,1 C 1,2 C
04.02.2010 08:00 1,1 C 99 % 1010 hPa 0,0 l/m 7,9 km/h (2 Bft) S-SW22.5 200 0 min 119 lux 0,00 min 1,0 C -0,4 C
04.02.2010 08:15 1,1 C 99 % 1010 hPa 0,0 l/m 0,3 km/h (0 Bft) SW 215 0 min 459 lux 0,00 min 1,0 C 1,1 C
04.02.2010 08:30 1,0 C 99 % 1010 hPa 0,0 l/m 3,8 km/h (1 Bft) SW 215 0 min 958 lux 0,00 min 0,9 C 1,0 C
04.02.2010 08:45 0,9 C 99 % 1010 hPa 0,0 l/m 0,0 km/h (0 Bft) S-SO 165 0 min 2,29 klux 0,00 min 0,8 C 0,9 C
04.02.2010 09:00 1,1 C 99 % 1010 hPa 0,0 l/m 1,1 km/h (1 Bft) S-SW22.5 195 0 min 3,55 klux 0,00 min 1,0 C 1,1 C
04.02.2010 09:15 1,4 C 99 % 1011 hPa 0,0 l/m 4,3 km/h (1 Bft) SW22.5 230 0 min 5,23 klux 0,00 min 1,3 C 1,4 C
04.02.2010 09:30 1,5 C 99 % 1011 hPa 0,0 l/m 7,5 km/h (2 Bft) W-SW 250 0 min 6,35 klux 0,00 min 1,4 C 0,4 C
04.02.2010 09:45 1,6 C 99 % 1011 hPa 0,0 l/m 8,7 km/h (2 Bft) SW 220 0 min 7,86 klux 0,00 min 1,5 C -0,6 C
04.02.2010 10:00 1,6 C 99 % 1011 hPa 0,0 l/m 4,7 km/h (1 Bft) SW 215 0 min 9,1 klux 0,00 min 1,5 C 1,6 C
04.02.2010 10:15 1,7 C 99 % 1011 hPa 0,0 l/m 5,4 km/h (1 Bft) SW 215 0 min 11,7 klux 0,00 min 1,6 C 1,7 C
04.02.2010 10:30 2,0 C 99 % 1011 hPa 0,0 l/m 0,0 km/h (0 Bft) S-SW 195 0 min 12,7 klux 0,00 min 1,9 C 2,0 C
04.02.2010 10:45 2,3 C 99 % 1011 hPa 0,0 l/m 0,0 km/h (0 Bft) S-SW 195 0 min 16,8 klux 0,00 min 2,2 C 2,3 C
04.02.2010 11:00 2,3 C 99 % 1011 hPa 0,0 l/m 7,2 km/h (2 Bft) S 185 0 min 13,6 klux 0,00 min 2,2 C 1,5 C
04.02.2010 11:15 2,5 C 99 % 1011 hPa 0,0 l/m 3,1 km/h (1 Bft) S 185 0 min 16,1 klux 0,00 min 2,4 C 2,5 C
04.02.2010 11:30 2,7 C 99 % 1011 hPa 0,0 l/m 4,6 km/h (1 Bft) SW 215 0 min 19,7 klux 0,00 min 2,6 C 2,7 C
04.02.2010 11:45 2,9 C 99 % 1011 hPa 0,0 l/m 6,0 km/h (2 Bft) S-SO 155 15 min 26,9 klux 0,00 min 2,8 C 2,9 C
04.02.2010 12:00 3,0 C 99 % 1011 hPa 0,0 l/m 8,4 km/h (2 Bft) S-SO 155 0 min 24,3 klux 0,00 min 2,9 C 1,2 C
04.02.2010 12:15 2,9 C 99 % 1011 hPa 0,0 l/m 8,7 km/h (2 Bft) S-SO 160 0 min 23,1 klux 0,00 min 2,8 C 0,8 C
04.02.2010 12:30 3,1 C 99 % 1011 hPa 0,0 l/m 6,3 km/h (2 Bft) S-SO 160 0 min 24,5 klux 0,00 min 3,0 C 3,1 C
04.02.2010 12:45 3,2 C 99 % 1011 hPa 0,0 l/m 8,9 km/h (2 Bft) S-SO 160 0 min 23,5 klux 0,00 min 3,1 C 0,9 C
04.02.2010 13:00 3,4 C 99 % 1011 hPa 0,0 l/m 6,8 km/h (2 Bft) S22.5 170 0 min 23,0 klux 0,00 min 3,3 C 3,0 C
04.02.2010 13:15 3,6 C 99 % 1010 hPa 0,0 l/m 4,3 km/h (1 Bft) S 185 0 min 23,4 klux 0,00 min 3,5 C 3,6 C
04.02.2010 13:30 3,3 C 99 % 1010 hPa 0,0 l/m 8,6 km/h (2 Bft) S 180 0 min 21,2 klux 0,00 min 3,2 C 1,3 C
04.02.2010 13:45 3,1 C 99 % 1010 hPa 0,0 l/m 8,1 km/h (2 Bft) S 180 0 min 18,5 klux 0,00 min 3,0 C 1,5 C
04.02.2010 14:00 3,1 C 99 % 1010 hPa 0,0 l/m 7,9 km/h (2 Bft) S 175 0 min 18,3 klux 0,00 min 3,0 C 1,7 C
04.02.2010 14:15 3,2 C 99 % 1010 hPa 0,0 l/m 5,6 km/h (1 Bft) S 180 0 min 19,9 klux 0,00 min 3,1 C 3,2 C
04.02.2010 14:30 3,3 C 99 % 1010 hPa 0,0 l/m 8,7 km/h (2 Bft) S-SO22.5 165 15 min 29,5 klux 0,00 min 3,2 C 1,2 C
04.02.2010 14:45 3,7 C 99 % 1010 hPa 0,0 l/m 10,5 km/h (2 Bft) S22.5 170 15 min 31,0 klux 0,00 min 3,6 C 0,3 C
04.02.2010 15:00 3,7 C 99 % 1010 hPa 0,0 l/m 11,6 km/h (2 Bft) S-SO 160 15 min 32,0 klux 0,00 min 3,6 C -0,5 C
04.02.2010 15:15 3,4 C 99 % 1009 hPa 0,0 l/m 9,6 km/h (2 Bft) S 175 15 min 32,7 klux 0,00 min 3,3 C 0,6 C
04.02.2010 15:30 3,2 C 99 % 1009 hPa 0,0 l/m 13,3 km/h (3 Bft) S-SO22.5 160 0 min 19,6 klux 0,00 min 3,1 C -2,1 C
04.02.2010 15:45 3,1 C 99 % 1009 hPa 0,0 l/m 12,1 km/h (2 Bft) S-SO22.5 160 0 min 21,0 klux 0,00 min 3,0 C -1,5 C
04.02.2010 16:00 2,9 C 99 % 1009 hPa 0,0 l/m 0,3 km/h (0 Bft) S 190 0 min 12,8 klux 0,00 min 2,8 C 2,9 C
04.02.2010 16:15 2,9 C 99 % 1009 hPa 0,0 l/m 7,2 km/h (2 Bft) S-SO22.5 165 0 min 11,7 klux 0,00 min 2,8 C 2,1 C
04.02.2010 16:30 2,7 C 99 % 1009 hPa 0,0 l/m 7,7 km/h (2 Bft) S-SO22.5 160 0 min 11,4 klux 0,00 min 2,6 C 1,5 C
04.02.2010 16:45 2,4 C 99 % 1009 hPa 0,0 l/m 4,7 km/h (1 Bft) S 170 0 min 9,1 klux 0,00 min 2,3 C 2,4 C
04.02.2010 17:00 2,1 C 99 % 1009 hPa 0,0 l/m 0,0 km/h (0 Bft) S 170 0 min 6,54 klux 0,00 min 2,0 C 2,1 C
04.02.2010 17:15 1,8 C 99 % 1009 hPa 0,0 l/m 0,0 km/h (0 Bft) S 170 0 min 6,10 klux 0,00 min 1,7 C 1,8 C
04.02.2010 17:30 1,5 C 99 % 1009 hPa 0,0 l/m 0,0 km/h (0 Bft) S 170 0 min 3,30 klux 0,00 min 1,4 C 1,5 C
04.02.2010 17:45 1,2 C 99 % 1008 hPa 0,0 l/m 0,1 km/h (0 Bft) S 170 0 min 765 lux 0,00 min 1,1 C 1,2 C
04.02.2010 18:00 0,9 C 99 % 1009 hPa 0,0 l/m 2,7 km/h (1 Bft) S 170 0 min 104 lux 0,00 min 0,8 C 0,9 C
04.02.2010 18:15 0,9 C 99 % 1008 hPa 0,0 l/m 5,6 km/h (1 Bft) S 170 0 min 10 lux 0,00 min 0,8 C 0,9 C
04.02.2010 18:30 0,8 C 99 % 1008 hPa 0,0 l/m 0,0 km/h (0 Bft) S 170 0 min 0 lux 0,00 min 0,7 C 0,8 C
04.02.2010 18:45 0,9 C 99 % 1008 hPa 0,0 l/m 5,3 km/h (1 Bft) S 170 0 min 0 lux 0,00 min 0,8 C 0,9 C
04.02.2010 19:00 0,9 C 99 % 1008 hPa 0,0 l/m 8,9 km/h (2 Bft) S-SO 155 0 min 0 lux 0,00 min 0,8 C -1,5 C
04.02.2010 19:15 0,9 C 99 % 1008 hPa 0,0 l/m 12,7 km/h (3 Bft) O-SO22.5 110 0 min 0 lux 0,00 min 0,8 C -4,4 C
04.02.2010 19:30 1,0 C 99 % 1008 hPa 0,0 l/m 8,8 km/h (2 Bft) O22.5 100 0 min 0 lux 0,00 min 0,9 C -1,3 C
04.02.2010 19:45 0,9 C 99 % 1008 hPa 0,0 l/m 8,7 km/h (2 Bft) O-NO45 75 0 min 0 lux 0,00 min 0,8 C -1,3 C
04.02.2010 20:00 0,7 C 99 % 1008 hPa 0,0 l/m 0,6 km/h (0 Bft) O-NO22.5 65 0 min 0 lux 0,00 min 0,6 C 0,7 C
04.02.2010 20:15 0,6 C 99 % 1008 hPa 0,0 l/m 5,2 km/h (1 Bft) O22.5 80 0 min 0 lux 0,00 min 0,5 C 0,6 C
04.02.2010 20:30 0,5 C 99 % 1008 hPa 0,0 l/m 5,6 km/h (1 Bft) O-NO 70 0 min 0 lux 0,00 min 0,4 C 0,5 C
04.02.2010 20:45 0,5 C 99 % 1008 hPa 0,0 l/m 4,3 km/h (1 Bft) SO 135 0 min 0 lux 0,00 min 0,4 C 0,5 C
04.02.2010 21:00 0,5 C 99 % 1008 hPa 0,0 l/m 9,8 km/h (2 Bft) S-SO45 150 0 min 0 lux 0,00 min 0,4 C -2,7 C
04.02.2010 21:15 0,3 C 99 % 1007 hPa 0,0 l/m 0,0 km/h (0 Bft) SO 140 0 min 0 lux 0,00 min 0,2 C 0,3 C
04.02.2010 21:30 -0,2 C 99 % 1007 hPa 0,0 l/m 0,0 km/h (0 Bft) SO 140 0 min 0 lux 0,00 min -0,3 C -0,2 C
04.02.2010 21:45 -0,3 C 99 % 1007 hPa 0,0 l/m 6,8 km/h (2 Bft) S-SO67.5 150 0 min 0 lux 0,00 min -0,4 C -0,7 C
04.02.2010 22:00 -0,2 C 99 % 1007 hPa 0,0 l/m 18,8 km/h (3 Bft) S-SO67.5 160 0 min 0 lux 0,00 min -0,3 C -9,3 C
04.02.2010 22:15 -0,3 C 99 % 1007 hPa 0,0 l/m 6,3 km/h (2 Bft) S22.5 180 0 min 0 lux 0,00 min -0,4 C -0,3 C
04.02.2010 22:30 -0,5 C 99 % 1007 hPa 0,0 l/m 0,0 km/h (0 Bft) W-SW 255 0 min 0 lux 0,00 min -0,6 C -0,5 C
04.02.2010 22:45 -0,7 C 99 % 1006 hPa 0,0 l/m 0,1 km/h (0 Bft) NW 320 0 min 0 lux 0,00 min -0,8 C -0,7 C
04.02.2010 23:00 -0,7 C 99 % 1006 hPa 0,0 l/m 3,1 km/h (1 Bft) NW22.5 325 0 min 0 lux 0,00 min -0,8 C -0,7 C
04.02.2010 23:15 -0,9 C 99 % 1006 hPa 0,0 l/m 4,4 km/h (1 Bft) W-SW 240 0 min 0 lux 0,00 min -1,0 C -0,9 C
04.02.2010 23:30 -0,9 C 99 % 1006 hPa 0,0 l/m 4,2 km/h (1 Bft) W-SW 240 0 min 0 lux 0,00 min -1,0 C -0,9 C
04.02.2010 23:45 -1,0 C 99 % 1006 hPa 0,0 l/m 0,3 km/h (0 Bft) SW 235 0 min 0 lux 0,00 min -1,1 C -1,0 C
_ Min-Zeit 23:45 00:00 22:45 - 08:45 - - - - - 23:45 02:30
Minimum _ -1,0 C 99 % 1006 hPa - 0,0 km/h (0 Bft) - - - - - -1,1 C -9,5 C
_ Max-Zeit 14:45 00:00 00:15 00:00 02:30 - - 11:45 15:15 00:00 14:45 13:15
Maximum _ 3,7 C 99 % 1011 hPa 0,0 l/m 24,1 km/h
SW (4 Bft)
- - 15 min 32,7 klux 0,00 min 3,6 C 3,6 C
Durchschnitt _ 1,5 C 99 % 1010 hPa #0,0 l/m 9,0 km/h (2 Bft) S - #1:15 h 6,26 klux #0 min. 1,3 C -1,6 C